sensor_id;sensor_type;location;lat;lon;timestamp;P1;durP1;ratioP1;P2;durP2;ratioP2
4756;SDS011;2392;52.578;13.426;2023-04-25T00:03:03;4.60;;;3.60;;
4756;SDS011;2392;52.578;13.426;2023-04-25T00:05:32;6.30;;;3.37;;
4756;SDS011;2392;52.578;13.426;2023-04-25T00:08:02;9.10;;;3.93;;
4756;SDS011;2392;52.578;13.426;2023-04-25T00:10:29;3.67;;;3.37;;
4756;SDS011;2392;52.578;13.426;2023-04-25T00:12:57;3.47;;;2.97;;
4756;SDS011;2392;52.578;13.426;2023-04-25T00:15:24;5.63;;;2.93;;
4756;SDS011;2392;52.578;13.426;2023-04-25T00:17:51;5.30;;;2.73;;
4756;SDS011;2392;52.578;13.426;2023-04-25T00:20:18;6.90;;;2.83;;
4756;SDS011;2392;52.578;13.426;2023-04-25T00:22:48;3.13;;;2.83;;
4756;SDS011;2392;52.578;13.426;2023-04-25T00:25:15;4.00;;;3.07;;
4756;SDS011;2392;52.578;13.426;2023-04-25T00:27:42;5.67;;;2.80;;
4756;SDS011;2392;52.578;13.426;2023-04-25T00:30:09;5.83;;;2.70;;
4756;SDS011;2392;52.578;13.426;2023-04-25T00:32:37;4.00;;;2.37;;
4756;SDS011;2392;52.578;13.426;2023-04-25T00:35:04;4.10;;;1.93;;
4756;SDS011;2392;52.578;13.426;2023-04-25T00:37:32;2.20;;;1.97;;
4756;SDS011;2392;52.578;13.426;2023-04-25T00:40:00;7.47;;;2.33;;
4756;SDS011;2392;52.578;13.426;2023-04-25T00:42:28;7.60;;;2.40;;
4756;SDS011;2392;52.578;13.426;2023-04-25T00:44:55;4.23;;;2.57;;
4756;SDS011;2392;52.578;13.426;2023-04-25T00:47:23;7.20;;;2.63;;
4756;SDS011;2392;52.578;13.426;2023-04-25T00:49:51;8.43;;;3.00;;
4756;SDS011;2392;52.578;13.426;2023-04-25T00:52:18;6.30;;;2.67;;
4756;SDS011;2392;52.578;13.426;2023-04-25T00:54:46;6.10;;;2.53;;
4756;SDS011;2392;52.578;13.426;2023-04-25T00:57:15;5.63;;;2.37;;
4756;SDS011;2392;52.578;13.426;2023-04-25T00:59:42;12.80;;;2.30;;
4756;SDS011;2392;52.578;13.426;2023-04-25T01:02:13;3.03;;;2.30;;
4756;SDS011;2392;52.578;13.426;2023-04-25T01:04:40;4.93;;;2.97;;
4756;SDS011;2392;52.578;13.426;2023-04-25T01:07:07;5.03;;;2.20;;
4756;SDS011;2392;52.578;13.426;2023-04-25T01:09:35;4.50;;;2.47;;
4756;SDS011;2392;52.578;13.426;2023-04-25T01:12:03;3.40;;;2.50;;
4756;SDS011;2392;52.578;13.426;2023-04-25T01:14:31;2.97;;;2.47;;
4756;SDS011;2392;52.578;13.426;2023-04-25T01:16:59;7.70;;;2.63;;
4756;SDS011;2392;52.578;13.426;2023-04-25T01:19:26;6.73;;;2.57;;
4756;SDS011;2392;52.578;13.426;2023-04-25T01:21:55;3.47;;;2.30;;
4756;SDS011;2392;52.578;13.426;2023-04-25T01:24:22;5.33;;;2.60;;
4756;SDS011;2392;52.578;13.426;2023-04-25T01:26:49;4.03;;;2.47;;
4756;SDS011;2392;52.578;13.426;2023-04-25T01:29:22;3.03;;;2.30;;
4756;SDS011;2392;52.578;13.426;2023-04-25T01:31:50;4.40;;;2.60;;
4756;SDS011;2392;52.578;13.426;2023-04-25T01:34:18;4.47;;;2.73;;
4756;SDS011;2392;52.578;13.426;2023-04-25T01:36:46;4.10;;;2.73;;
4756;SDS011;2392;52.578;13.426;2023-04-25T01:39:16;3.57;;;2.27;;
4756;SDS011;2392;52.578;13.426;2023-04-25T01:41:44;4.53;;;2.30;;
4756;SDS011;2392;52.578;13.426;2023-04-25T01:44:11;14.67;;;3.47;;
4756;SDS011;2392;52.578;13.426;2023-04-25T01:46:39;5.00;;;3.40;;
4756;SDS011;2392;52.578;13.426;2023-04-25T01:49:06;3.53;;;2.50;;
4756;SDS011;2392;52.578;13.426;2023-04-25T01:51:34;5.50;;;3.20;;
4756;SDS011;2392;52.578;13.426;2023-04-25T01:54:01;5.13;;;3.47;;
4756;SDS011;2392;52.578;13.426;2023-04-25T01:56:31;6.07;;;3.40;;
4756;SDS011;2392;52.578;13.426;2023-04-25T01:58:59;8.27;;;2.17;;
4756;SDS011;2392;52.578;13.426;2023-04-25T02:01:50;3.93;;;2.80;;
4756;SDS011;2392;52.578;13.426;2023-04-25T02:04:24;5.23;;;2.70;;
4756;SDS011;2392;52.578;13.426;2023-04-25T02:06:51;9.13;;;2.93;;
4756;SDS011;2392;52.578;13.426;2023-04-25T02:09:20;5.37;;;2.67;;
4756;SDS011;2392;52.578;13.426;2023-04-25T02:11:53;4.77;;;3.50;;
4756;SDS011;2392;52.578;13.426;2023-04-25T02:14:40;7.33;;;3.50;;
4756;SDS011;2392;52.578;13.426;2023-04-25T02:17:14;6.07;;;3.37;;
4756;SDS011;2392;52.578;13.426;2023-04-25T02:19:44;7.10;;;3.50;;
4756;SDS011;2392;52.578;13.426;2023-04-25T02:22:11;6.73;;;3.50;;
4756;SDS011;2392;52.578;13.426;2023-04-25T02:24:38;4.23;;;2.80;;
4756;SDS011;2392;52.578;13.426;2023-04-25T02:27:07;6.30;;;3.40;;
4756;SDS011;2392;52.578;13.426;2023-04-25T02:29:34;9.73;;;3.47;;
4756;SDS011;2392;52.578;13.426;2023-04-25T02:32:01;7.47;;;3.00;;
4756;SDS011;2392;52.578;13.426;2023-04-25T02:34:28;12.73;;;3.50;;
4756;SDS011;2392;52.578;13.426;2023-04-25T02:36:59;7.20;;;3.47;;
4756;SDS011;2392;52.578;13.426;2023-04-25T02:39:26;8.00;;;3.73;;
4756;SDS011;2392;52.578;13.426;2023-04-25T02:41:54;8.73;;;4.23;;
4756;SDS011;2392;52.578;13.426;2023-04-25T02:44:23;5.20;;;3.30;;
4756;SDS011;2392;52.578;13.426;2023-04-25T02:46:50;5.40;;;3.33;;
4756;SDS011;2392;52.578;13.426;2023-04-25T02:49:17;6.20;;;3.60;;
4756;SDS011;2392;52.578;13.426;2023-04-25T02:51:43;8.97;;;3.30;;
4756;SDS011;2392;52.578;13.426;2023-04-25T02:54:11;4.30;;;3.37;;
4756;SDS011;2392;52.578;13.426;2023-04-25T02:56:42;11.40;;;3.90;;
4756;SDS011;2392;52.578;13.426;2023-04-25T02:59:14;8.23;;;4.07;;
4756;SDS011;2392;52.578;13.426;2023-04-25T03:01:42;6.23;;;3.20;;
4756;SDS011;2392;52.578;13.426;2023-04-25T03:04:10;8.63;;;3.83;;
4756;SDS011;2392;52.578;13.426;2023-04-25T03:06:37;5.97;;;4.00;;
4756;SDS011;2392;52.578;13.426;2023-04-25T03:09:04;7.00;;;3.97;;
4756;SDS011;2392;52.578;13.426;2023-04-25T03:11:33;7.83;;;3.60;;
4756;SDS011;2392;52.578;13.426;2023-04-25T03:14:00;4.30;;;3.70;;
4756;SDS011;2392;52.578;13.426;2023-04-25T03:16:28;5.20;;;3.30;;
4756;SDS011;2392;52.578;13.426;2023-04-25T03:18:57;6.10;;;3.73;;
4756;SDS011;2392;52.578;13.426;2023-04-25T03:21:25;8.93;;;3.77;;
4756;SDS011;2392;52.578;13.426;2023-04-25T03:23:52;4.03;;;3.63;;
4756;SDS011;2392;52.578;13.426;2023-04-25T03:26:19;5.50;;;3.60;;
4756;SDS011;2392;52.578;13.426;2023-04-25T03:28:47;8.73;;;3.93;;
4756;SDS011;2392;52.578;13.426;2023-04-25T03:31:14;7.70;;;3.63;;
4756;SDS011;2392;52.578;13.426;2023-04-25T03:33:41;9.43;;;3.70;;
4756;SDS011;2392;52.578;13.426;2023-04-25T03:36:10;7.47;;;3.80;;
4756;SDS011;2392;52.578;13.426;2023-04-25T03:38:37;7.87;;;4.10;;
4756;SDS011;2392;52.578;13.426;2023-04-25T03:41:06;5.03;;;3.20;;
4756;SDS011;2392;52.578;13.426;2023-04-25T03:43:46;3.90;;;3.47;;
4756;SDS011;2392;52.578;13.426;2023-04-25T03:46:15;6.23;;;3.60;;
4756;SDS011;2392;52.578;13.426;2023-04-25T03:48:42;8.23;;;4.40;;
4756;SDS011;2392;52.578;13.426;2023-04-25T03:51:15;6.03;;;4.27;;
4756;SDS011;2392;52.578;13.426;2023-04-25T03:53:44;13.43;;;4.20;;
4756;SDS011;2392;52.578;13.426;2023-04-25T03:56:13;6.67;;;3.60;;
4756;SDS011;2392;52.578;13.426;2023-04-25T03:58:42;4.10;;;3.70;;
4756;SDS011;2392;52.578;13.426;2023-04-25T04:01:09;5.30;;;3.63;;
4756;SDS011;2392;52.578;13.426;2023-04-25T04:03:38;3.23;;;2.93;;
4756;SDS011;2392;52.578;13.426;2023-04-25T04:06:06;9.00;;;4.30;;
4756;SDS011;2392;52.578;13.426;2023-04-25T04:08:48;5.90;;;4.10;;
4756;SDS011;2392;52.578;13.426;2023-04-25T04:11:15;6.77;;;4.40;;
4756;SDS011;2392;52.578;13.426;2023-04-25T04:13:42;6.60;;;3.50;;
4756;SDS011;2392;52.578;13.426;2023-04-25T04:16:09;7.00;;;5.00;;
4756;SDS011;2392;52.578;13.426;2023-04-25T04:18:36;4.70;;;3.80;;
4756;SDS011;2392;52.578;13.426;2023-04-25T04:21:04;6.63;;;3.67;;
4756;SDS011;2392;52.578;13.426;2023-04-25T04:23:34;6.57;;;3.77;;
4756;SDS011;2392;52.578;13.426;2023-04-25T04:26:03;6.53;;;4.37;;
4756;SDS011;2392;52.578;13.426;2023-04-25T04:28:54;5.70;;;3.87;;
4756;SDS011;2392;52.578;13.426;2023-04-25T04:31:37;5.27;;;3.53;;
4756;SDS011;2392;52.578;13.426;2023-04-25T04:34:04;6.77;;;4.07;;
4756;SDS011;2392;52.578;13.426;2023-04-25T04:36:33;5.50;;;3.60;;
4756;SDS011;2392;52.578;13.426;2023-04-25T04:39:00;7.60;;;3.33;;
4756;SDS011;2392;52.578;13.426;2023-04-25T04:41:37;9.23;;;3.70;;
4756;SDS011;2392;52.578;13.426;2023-04-25T04:44:25;5.23;;;3.90;;
4756;SDS011;2392;52.578;13.426;2023-04-25T04:47:24;7.97;;;4.10;;
4756;SDS011;2392;52.578;13.426;2023-04-25T04:50:32;5.27;;;3.90;;
4756;SDS011;2392;52.578;13.426;2023-04-25T04:53:23;7.50;;;3.37;;
4756;SDS011;2392;52.578;13.426;2023-04-25T04:56:13;8.00;;;3.37;;
4756;SDS011;2392;52.578;13.426;2023-04-25T04:58:55;7.77;;;4.20;;
4756;SDS011;2392;52.578;13.426;2023-04-25T05:01:36;7.90;;;3.30;;
4756;SDS011;2392;52.578;13.426;2023-04-25T05:04:15;7.20;;;3.57;;
4756;SDS011;2392;52.578;13.426;2023-04-25T05:07:01;7.00;;;3.50;;
4756;SDS011;2392;52.578;13.426;2023-04-25T05:09:48;5.60;;;4.00;;
4756;SDS011;2392;52.578;13.426;2023-04-25T05:12:35;4.40;;;3.00;;
4756;SDS011;2392;52.578;13.426;2023-04-25T05:15:07;8.83;;;4.60;;
4756;SDS011;2392;52.578;13.426;2023-04-25T05:17:53;7.20;;;4.10;;
4756;SDS011;2392;52.578;13.426;2023-04-25T05:20:38;9.23;;;3.60;;
4756;SDS011;2392;52.578;13.426;2023-04-25T05:23:24;6.50;;;3.40;;
4756;SDS011;2392;52.578;13.426;2023-04-25T05:26:09;7.67;;;4.13;;
4756;SDS011;2392;52.578;13.426;2023-04-25T05:28:52;8.70;;;4.03;;
4756;SDS011;2392;52.578;13.426;2023-04-25T05:31:41;9.07;;;3.73;;
4756;SDS011;2392;52.578;13.426;2023-04-25T05:34:12;6.53;;;3.40;;
4756;SDS011;2392;52.578;13.426;2023-04-25T05:36:53;4.70;;;2.90;;
4756;SDS011;2392;52.578;13.426;2023-04-25T05:39:20;3.90;;;3.50;;
4756;SDS011;2392;52.578;13.426;2023-04-25T05:42:26;6.73;;;3.77;;
4756;SDS011;2392;52.578;13.426;2023-04-25T05:45:21;10.63;;;4.37;;
4756;SDS011;2392;52.578;13.426;2023-04-25T05:48:22;5.93;;;4.07;;
4756;SDS011;2392;52.578;13.426;2023-04-25T05:50:58;10.03;;;4.30;;
4756;SDS011;2392;52.578;13.426;2023-04-25T05:53:51;10.17;;;4.60;;
4756;SDS011;2392;52.578;13.426;2023-04-25T05:56:18;8.60;;;4.03;;
4756;SDS011;2392;52.578;13.426;2023-04-25T05:58:47;5.50;;;4.50;;
4756;SDS011;2392;52.578;13.426;2023-04-25T06:01:15;5.87;;;4.13;;
4756;SDS011;2392;52.578;13.426;2023-04-25T06:03:44;6.67;;;3.50;;
4756;SDS011;2392;52.578;13.426;2023-04-25T06:06:11;6.20;;;3.87;;
4756;SDS011;2392;52.578;13.426;2023-04-25T06:08:39;8.57;;;4.47;;
4756;SDS011;2392;52.578;13.426;2023-04-25T06:11:06;10.30;;;5.50;;
4756;SDS011;2392;52.578;13.426;2023-04-25T06:13:33;4.17;;;3.77;;
4756;SDS011;2392;52.578;13.426;2023-04-25T06:16:00;10.60;;;4.33;;
4756;SDS011;2392;52.578;13.426;2023-04-25T06:18:28;11.57;;;4.23;;
4756;SDS011;2392;52.578;13.426;2023-04-25T06:20:56;6.30;;;4.30;;
4756;SDS011;2392;52.578;13.426;2023-04-25T06:23:24;7.27;;;4.10;;
4756;SDS011;2392;52.578;13.426;2023-04-25T06:25:57;5.73;;;4.40;;
4756;SDS011;2392;52.578;13.426;2023-04-25T06:28:28;7.43;;;4.20;;
4756;SDS011;2392;52.578;13.426;2023-04-25T06:30:55;5.37;;;4.47;;
4756;SDS011;2392;52.578;13.426;2023-04-25T06:33:22;6.60;;;4.63;;
4756;SDS011;2392;52.578;13.426;2023-04-25T06:35:50;7.90;;;4.33;;
4756;SDS011;2392;52.578;13.426;2023-04-25T06:38:23;6.17;;;4.33;;
4756;SDS011;2392;52.578;13.426;2023-04-25T06:40:52;8.30;;;4.33;;
4756;SDS011;2392;52.578;13.426;2023-04-25T06:43:19;8.97;;;4.80;;
4756;SDS011;2392;52.578;13.426;2023-04-25T06:45:48;8.40;;;4.97;;
4756;SDS011;2392;52.578;13.426;2023-04-25T06:48:16;6.50;;;4.50;;
4756;SDS011;2392;52.578;13.426;2023-04-25T06:50:43;11.20;;;4.63;;
4756;SDS011;2392;52.578;13.426;2023-04-25T06:53:11;7.43;;;4.00;;
4756;SDS011;2392;52.578;13.426;2023-04-25T06:55:41;8.30;;;4.80;;
4756;SDS011;2392;52.578;13.426;2023-04-25T06:58:15;4.97;;;4.00;;
4756;SDS011;2392;52.578;13.426;2023-04-25T07:00:52;5.87;;;5.23;;
4756;SDS011;2392;52.578;13.426;2023-04-25T07:03:22;4.30;;;3.83;;
4756;SDS011;2392;52.578;13.426;2023-04-25T07:05:51;6.07;;;4.47;;
4756;SDS011;2392;52.578;13.426;2023-04-25T07:08:18;6.50;;;3.90;;
4756;SDS011;2392;52.578;13.426;2023-04-25T07:10:48;7.17;;;4.50;;
4756;SDS011;2392;52.578;13.426;2023-04-25T07:13:15;12.90;;;6.57;;
4756;SDS011;2392;52.578;13.426;2023-04-25T07:15:43;7.57;;;4.93;;
4756;SDS011;2392;52.578;13.426;2023-04-25T07:18:11;14.40;;;4.70;;
4756;SDS011;2392;52.578;13.426;2023-04-25T07:20:38;5.60;;;4.33;;
4756;SDS011;2392;52.578;13.426;2023-04-25T07:23:05;15.03;;;4.93;;
4756;SDS011;2392;52.578;13.426;2023-04-25T07:25:32;5.03;;;3.93;;
4756;SDS011;2392;52.578;13.426;2023-04-25T07:28:02;19.20;;;5.00;;
4756;SDS011;2392;52.578;13.426;2023-04-25T07:30:29;10.37;;;4.60;;
4756;SDS011;2392;52.578;13.426;2023-04-25T07:32:56;11.27;;;5.10;;
4756;SDS011;2392;52.578;13.426;2023-04-25T07:35:24;9.13;;;3.60;;
4756;SDS011;2392;52.578;13.426;2023-04-25T07:37:51;13.43;;;4.20;;
4756;SDS011;2392;52.578;13.426;2023-04-25T07:40:18;5.87;;;3.77;;
4756;SDS011;2392;52.578;13.426;2023-04-25T07:42:53;6.07;;;4.10;;
4756;SDS011;2392;52.578;13.426;2023-04-25T07:45:42;9.13;;;3.70;;
4756;SDS011;2392;52.578;13.426;2023-04-25T07:48:09;13.00;;;4.63;;
4756;SDS011;2392;52.578;13.426;2023-04-25T07:50:37;10.93;;;4.10;;
4756;SDS011;2392;52.578;13.426;2023-04-25T07:53:05;8.33;;;3.67;;
4756;SDS011;2392;52.578;13.426;2023-04-25T07:55:39;14.80;;;4.43;;
4756;SDS011;2392;52.578;13.426;2023-04-25T07:58:12;10.63;;;3.60;;
4756;SDS011;2392;52.578;13.426;2023-04-25T08:00:44;13.30;;;3.77;;
4756;SDS011;2392;52.578;13.426;2023-04-25T08:03:31;11.00;;;3.77;;
4756;SDS011;2392;52.578;13.426;2023-04-25T08:05:59;9.10;;;3.27;;
4756;SDS011;2392;52.578;13.426;2023-04-25T08:08:30;7.63;;;3.47;;
4756;SDS011;2392;52.578;13.426;2023-04-25T08:10:57;17.43;;;6.40;;
4756;SDS011;2392;52.578;13.426;2023-04-25T08:13:25;17.77;;;4.00;;
4756;SDS011;2392;52.578;13.426;2023-04-25T08:15:54;12.33;;;4.10;;
4756;SDS011;2392;52.578;13.426;2023-04-25T08:18:21;4.10;;;2.90;;
4756;SDS011;2392;52.578;13.426;2023-04-25T08:20:49;7.17;;;3.07;;
4756;SDS011;2392;52.578;13.426;2023-04-25T08:23:16;13.63;;;3.90;;
4756;SDS011;2392;52.578;13.426;2023-04-25T08:25:52;12.33;;;4.80;;
4756;SDS011;2392;52.578;13.426;2023-04-25T08:28:23;9.80;;;3.50;;
4756;SDS011;2392;52.578;13.426;2023-04-25T08:30:50;8.40;;;3.60;;
4756;SDS011;2392;52.578;13.426;2023-04-25T08:33:20;13.50;;;3.60;;
4756;SDS011;2392;52.578;13.426;2023-04-25T08:35:46;16.93;;;4.17;;
4756;SDS011;2392;52.578;13.426;2023-04-25T08:38:14;8.10;;;3.00;;
4756;SDS011;2392;52.578;13.426;2023-04-25T08:40:42;13.80;;;4.30;;
4756;SDS011;2392;52.578;13.426;2023-04-25T08:43:14;17.47;;;3.90;;
4756;SDS011;2392;52.578;13.426;2023-04-25T08:45:42;9.70;;;3.87;;
4756;SDS011;2392;52.578;13.426;2023-04-25T08:48:16;10.50;;;3.40;;
4756;SDS011;2392;52.578;13.426;2023-04-25T08:50:48;19.20;;;3.60;;
4756;SDS011;2392;52.578;13.426;2023-04-25T08:53:19;14.07;;;3.30;;
4756;SDS011;2392;52.578;13.426;2023-04-25T08:55:48;10.27;;;2.63;;
4756;SDS011;2392;52.578;13.426;2023-04-25T08:58:17;11.70;;;3.00;;
4756;SDS011;2392;52.578;13.426;2023-04-25T09:00:45;7.33;;;3.60;;
4756;SDS011;2392;52.578;13.426;2023-04-25T09:03:14;14.20;;;3.37;;
4756;SDS011;2392;52.578;13.426;2023-04-25T09:05:41;7.47;;;3.07;;
4756;SDS011;2392;52.578;13.426;2023-04-25T09:08:10;12.27;;;3.33;;
4756;SDS011;2392;52.578;13.426;2023-04-25T09:10:37;8.90;;;2.73;;
4756;SDS011;2392;52.578;13.426;2023-04-25T09:13:06;11.67;;;3.47;;
4756;SDS011;2392;52.578;13.426;2023-04-25T09:15:52;7.73;;;2.80;;
4756;SDS011;2392;52.578;13.426;2023-04-25T09:18:46;11.93;;;3.00;;
4756;SDS011;2392;52.578;13.426;2023-04-25T09:21:15;15.40;;;3.30;;
4756;SDS011;2392;52.578;13.426;2023-04-25T09:23:47;10.97;;;3.43;;
4756;SDS011;2392;52.578;13.426;2023-04-25T09:26:16;8.37;;;2.93;;
4756;SDS011;2392;52.578;13.426;2023-04-25T09:28:45;9.73;;;3.27;;
4756;SDS011;2392;52.578;13.426;2023-04-25T09:31:21;8.00;;;3.63;;
4756;SDS011;2392;52.578;13.426;2023-04-25T09:33:49;14.13;;;3.80;;
4756;SDS011;2392;52.578;13.426;2023-04-25T09:36:26;13.97;;;3.10;;
4756;SDS011;2392;52.578;13.426;2023-04-25T09:39:02;9.37;;;3.27;;
4756;SDS011;2392;52.578;13.426;2023-04-25T09:41:35;10.27;;;2.87;;
4756;SDS011;2392;52.578;13.426;2023-04-25T09:44:07;9.67;;;3.03;;
4756;SDS011;2392;52.578;13.426;2023-04-25T09:46:50;11.63;;;3.20;;
4756;SDS011;2392;52.578;13.426;2023-04-25T09:49:24;7.47;;;2.17;;
4756;SDS011;2392;52.578;13.426;2023-04-25T09:52:03;8.30;;;2.60;;
4756;SDS011;2392;52.578;13.426;2023-04-25T09:54:43;7.87;;;2.87;;
4756;SDS011;2392;52.578;13.426;2023-04-25T09:57:18;7.57;;;3.23;;
4756;SDS011;2392;52.578;13.426;2023-04-25T09:59:48;10.07;;;3.10;;
4756;SDS011;2392;52.578;13.426;2023-04-25T10:02:16;4.80;;;2.67;;
4756;SDS011;2392;52.578;13.426;2023-04-25T10:04:47;9.27;;;3.30;;
4756;SDS011;2392;52.578;13.426;2023-04-25T10:07:26;10.07;;;2.80;;
4756;SDS011;2392;52.578;13.426;2023-04-25T10:09:59;9.80;;;2.43;;
4756;SDS011;2392;52.578;13.426;2023-04-25T10:12:28;13.97;;;2.97;;
4756;SDS011;2392;52.578;13.426;2023-04-25T10:14:56;7.43;;;2.80;;
4756;SDS011;2392;52.578;13.426;2023-04-25T10:17:24;11.17;;;2.87;;
4756;SDS011;2392;52.578;13.426;2023-04-25T10:19:53;6.40;;;2.30;;
4756;SDS011;2392;52.578;13.426;2023-04-25T10:22:23;6.43;;;2.70;;
4756;SDS011;2392;52.578;13.426;2023-04-25T10:24:55;10.30;;;2.80;;
4756;SDS011;2392;52.578;13.426;2023-04-25T10:27:24;8.00;;;2.20;;
4756;SDS011;2392;52.578;13.426;2023-04-25T10:29:59;9.63;;;2.43;;
4756;SDS011;2392;52.578;13.426;2023-04-25T10:32:30;8.40;;;3.00;;
4756;SDS011;2392;52.578;13.426;2023-04-25T10:34:57;7.87;;;2.30;;
4756;SDS011;2392;52.578;13.426;2023-04-25T10:37:35;12.13;;;3.00;;
4756;SDS011;2392;52.578;13.426;2023-04-25T10:40:07;6.80;;;2.40;;
4756;SDS011;2392;52.578;13.426;2023-04-25T10:42:37;7.37;;;3.20;;
4756;SDS011;2392;52.578;13.426;2023-04-25T10:45:04;11.93;;;2.70;;
4756;SDS011;2392;52.578;13.426;2023-04-25T10:47:43;6.77;;;2.50;;
4756;SDS011;2392;52.578;13.426;2023-04-25T10:50:14;5.40;;;2.50;;
4756;SDS011;2392;52.578;13.426;2023-04-25T10:52:42;12.50;;;3.20;;
4756;SDS011;2392;52.578;13.426;2023-04-25T10:55:09;7.03;;;2.63;;
4756;SDS011;2392;52.578;13.426;2023-04-25T10:57:38;8.87;;;2.50;;
4756;SDS011;2392;52.578;13.426;2023-04-25T11:00:16;4.20;;;1.83;;
4756;SDS011;2392;52.578;13.426;2023-04-25T11:02:45;10.47;;;2.23;;
4756;SDS011;2392;52.578;13.426;2023-04-25T11:05:20;9.27;;;2.40;;
4756;SDS011;2392;52.578;13.426;2023-04-25T11:07:54;13.90;;;2.90;;
4756;SDS011;2392;52.578;13.426;2023-04-25T11:10:24;6.73;;;2.20;;
4756;SDS011;2392;52.578;13.426;2023-04-25T11:12:55;7.37;;;2.70;;
4756;SDS011;2392;52.578;13.426;2023-04-25T11:15:22;11.50;;;2.60;;
4756;SDS011;2392;52.578;13.426;2023-04-25T11:17:50;4.63;;;1.93;;
4756;SDS011;2392;52.578;13.426;2023-04-25T11:20:18;6.07;;;2.50;;
4756;SDS011;2392;52.578;13.426;2023-04-25T11:22:45;4.47;;;1.57;;
4756;SDS011;2392;52.578;13.426;2023-04-25T11:25:14;6.43;;;2.13;;
4756;SDS011;2392;52.578;13.426;2023-04-25T11:27:51;9.23;;;3.03;;
4756;SDS011;2392;52.578;13.426;2023-04-25T11:30:20;5.67;;;2.17;;
4756;SDS011;2392;52.578;13.426;2023-04-25T11:32:48;6.87;;;2.27;;
4756;SDS011;2392;52.578;13.426;2023-04-25T11:35:17;5.17;;;1.70;;
4756;SDS011;2392;52.578;13.426;2023-04-25T11:37:44;4.67;;;1.83;;
4756;SDS011;2392;52.578;13.426;2023-04-25T11:40:11;10.27;;;2.40;;
4756;SDS011;2392;52.578;13.426;2023-04-25T11:42:43;4.30;;;1.73;;
4756;SDS011;2392;52.578;13.426;2023-04-25T11:45:20;6.97;;;2.37;;
4756;SDS011;2392;52.578;13.426;2023-04-25T11:47:49;5.37;;;1.90;;
4756;SDS011;2392;52.578;13.426;2023-04-25T11:50:17;8.43;;;2.43;;
4756;SDS011;2392;52.578;13.426;2023-04-25T11:52:45;8.07;;;1.97;;
4756;SDS011;2392;52.578;13.426;2023-04-25T11:55:16;4.47;;;1.90;;
4756;SDS011;2392;52.578;13.426;2023-04-25T11:57:45;7.23;;;2.20;;
4756;SDS011;2392;52.578;13.426;2023-04-25T12:00:15;8.00;;;1.40;;
4756;SDS011;2392;52.578;13.426;2023-04-25T12:02:46;6.67;;;2.13;;
4756;SDS011;2392;52.578;13.426;2023-04-25T12:05:14;5.40;;;2.00;;
4756;SDS011;2392;52.578;13.426;2023-04-25T12:07:41;6.90;;;2.20;;
4756;SDS011;2392;52.578;13.426;2023-04-25T12:10:10;6.17;;;2.00;;
4756;SDS011;2392;52.578;13.426;2023-04-25T12:12:41;5.17;;;2.17;;
4756;SDS011;2392;52.578;13.426;2023-04-25T12:15:09;12.20;;;2.73;;
4756;SDS011;2392;52.578;13.426;2023-04-25T12:17:40;8.33;;;2.30;;
4756;SDS011;2392;52.578;13.426;2023-04-25T12:20:10;2.90;;;1.83;;
4756;SDS011;2392;52.578;13.426;2023-04-25T12:22:40;6.77;;;2.43;;
4756;SDS011;2392;52.578;13.426;2023-04-25T12:25:09;8.90;;;2.67;;
4756;SDS011;2392;52.578;13.426;2023-04-25T12:27:40;10.30;;;2.93;;
4756;SDS011;2392;52.578;13.426;2023-04-25T12:30:09;6.60;;;2.13;;
4756;SDS011;2392;52.578;13.426;2023-04-25T12:32:37;4.03;;;1.50;;
4756;SDS011;2392;52.578;13.426;2023-04-25T12:35:05;6.90;;;2.30;;
4756;SDS011;2392;52.578;13.426;2023-04-25T12:37:34;6.53;;;1.97;;
4756;SDS011;2392;52.578;13.426;2023-04-25T12:40:01;5.77;;;2.17;;
4756;SDS011;2392;52.578;13.426;2023-04-25T12:42:29;6.30;;;1.77;;
4756;SDS011;2392;52.578;13.426;2023-04-25T12:44:56;3.27;;;2.00;;
4756;SDS011;2392;52.578;13.426;2023-04-25T12:47:23;5.20;;;2.00;;
4756;SDS011;2392;52.578;13.426;2023-04-25T12:49:50;2.73;;;1.90;;
4756;SDS011;2392;52.578;13.426;2023-04-25T12:52:17;9.07;;;2.33;;
4756;SDS011;2392;52.578;13.426;2023-04-25T12:54:45;8.83;;;3.13;;
4756;SDS011;2392;52.578;13.426;2023-04-25T12:57:12;5.87;;;2.03;;
4756;SDS011;2392;52.578;13.426;2023-04-25T12:59:39;5.90;;;2.17;;
4756;SDS011;2392;52.578;13.426;2023-04-25T13:02:06;4.40;;;1.70;;
4756;SDS011;2392;52.578;13.426;2023-04-25T13:04:33;2.63;;;1.70;;
4756;SDS011;2392;52.578;13.426;2023-04-25T13:07:00;4.87;;;1.80;;
4756;SDS011;2392;52.578;13.426;2023-04-25T13:09:27;5.57;;;1.83;;
4756;SDS011;2392;52.578;13.426;2023-04-25T13:11:55;6.83;;;2.27;;
4756;SDS011;2392;52.578;13.426;2023-04-25T13:14:22;3.83;;;1.60;;
4756;SDS011;2392;52.578;13.426;2023-04-25T13:16:49;5.13;;;2.67;;
4756;SDS011;2392;52.578;13.426;2023-04-25T13:19:16;7.80;;;2.10;;
4756;SDS011;2392;52.578;13.426;2023-04-25T13:21:43;2.93;;;1.87;;
4756;SDS011;2392;52.578;13.426;2023-04-25T13:24:10;2.10;;;1.90;;
4756;SDS011;2392;52.578;13.426;2023-04-25T13:26:37;5.20;;;2.00;;
4756;SDS011;2392;52.578;13.426;2023-04-25T13:29:06;4.47;;;2.00;;
4756;SDS011;2392;52.578;13.426;2023-04-25T13:31:33;2.80;;;1.53;;
4756;SDS011;2392;52.578;13.426;2023-04-25T13:34:00;7.03;;;1.87;;
4756;SDS011;2392;52.578;13.426;2023-04-25T13:36:27;8.77;;;2.43;;
4756;SDS011;2392;52.578;13.426;2023-04-25T13:38:54;9.40;;;2.33;;
4756;SDS011;2392;52.578;13.426;2023-04-25T13:41:21;8.53;;;1.73;;
4756;SDS011;2392;52.578;13.426;2023-04-25T13:43:48;4.10;;;2.10;;
4756;SDS011;2392;52.578;13.426;2023-04-25T13:46:16;3.80;;;1.50;;
4756;SDS011;2392;52.578;13.426;2023-04-25T13:48:43;4.47;;;1.70;;
4756;SDS011;2392;52.578;13.426;2023-04-25T13:51:14;4.90;;;2.33;;
4756;SDS011;2392;52.578;13.426;2023-04-25T13:53:42;8.23;;;2.43;;
4756;SDS011;2392;52.578;13.426;2023-04-25T13:56:10;5.73;;;1.87;;
4756;SDS011;2392;52.578;13.426;2023-04-25T13:58:37;7.37;;;1.63;;
4756;SDS011;2392;52.578;13.426;2023-04-25T14:01:05;6.30;;;1.53;;
4756;SDS011;2392;52.578;13.426;2023-04-25T14:03:33;6.87;;;1.90;;
4756;SDS011;2392;52.578;13.426;2023-04-25T14:06:00;4.03;;;1.73;;
4756;SDS011;2392;52.578;13.426;2023-04-25T14:08:27;4.50;;;1.50;;
4756;SDS011;2392;52.578;13.426;2023-04-25T14:10:55;8.20;;;1.90;;
4756;SDS011;2392;52.578;13.426;2023-04-25T14:13:22;6.43;;;2.27;;
4756;SDS011;2392;52.578;13.426;2023-04-25T14:15:50;1.83;;;1.60;;
4756;SDS011;2392;52.578;13.426;2023-04-25T14:18:17;4.73;;;1.77;;
4756;SDS011;2392;52.578;13.426;2023-04-25T14:20:46;7.07;;;2.10;;
4756;SDS011;2392;52.578;13.426;2023-04-25T14:23:13;3.73;;;1.60;;
4756;SDS011;2392;52.578;13.426;2023-04-25T14:25:40;3.77;;;1.60;;
4756;SDS011;2392;52.578;13.426;2023-04-25T14:28:08;5.70;;;2.37;;
4756;SDS011;2392;52.578;13.426;2023-04-25T14:30:36;4.03;;;1.70;;
4756;SDS011;2392;52.578;13.426;2023-04-25T14:33:06;3.63;;;1.63;;
4756;SDS011;2392;52.578;13.426;2023-04-25T14:35:33;5.50;;;2.03;;
4756;SDS011;2392;52.578;13.426;2023-04-25T14:38:02;2.40;;;1.50;;
4756;SDS011;2392;52.578;13.426;2023-04-25T14:40:30;3.10;;;1.20;;
4756;SDS011;2392;52.578;13.426;2023-04-25T14:42:57;3.43;;;1.93;;
4756;SDS011;2392;52.578;13.426;2023-04-25T14:45:24;3.37;;;1.63;;
4756;SDS011;2392;52.578;13.426;2023-04-25T14:47:51;3.63;;;2.10;;
4756;SDS011;2392;52.578;13.426;2023-04-25T14:50:18;4.60;;;1.50;;
4756;SDS011;2392;52.578;13.426;2023-04-25T14:52:45;4.37;;;1.30;;
4756;SDS011;2392;52.578;13.426;2023-04-25T14:55:13;5.53;;;2.50;;
4756;SDS011;2392;52.578;13.426;2023-04-25T14:57:40;3.80;;;1.80;;
4756;SDS011;2392;52.578;13.426;2023-04-25T15:00:08;3.50;;;2.17;;
4756;SDS011;2392;52.578;13.426;2023-04-25T15:02:38;6.10;;;1.63;;
4756;SDS011;2392;52.578;13.426;2023-04-25T15:05:06;2.80;;;1.90;;
4756;SDS011;2392;52.578;13.426;2023-04-25T15:07:33;3.37;;;1.33;;
4756;SDS011;2392;52.578;13.426;2023-04-25T15:10:00;7.10;;;1.33;;
4756;SDS011;2392;52.578;13.426;2023-04-25T15:12:30;4.53;;;1.70;;
4756;SDS011;2392;52.578;13.426;2023-04-25T15:14:58;10.03;;;1.20;;
4756;SDS011;2392;52.578;13.426;2023-04-25T15:17:25;3.30;;;1.33;;
4756;SDS011;2392;52.578;13.426;2023-04-25T15:19:55;9.00;;;2.07;;